createdAt,value
2023-05-07T00:00:19.052Z,8.45
2023-05-07T00:02:46.590Z,8.25
2023-05-07T00:05:13.530Z,13.90
2023-05-07T00:07:40.476Z,11.70
2023-05-07T00:10:07.980Z,8.73
2023-05-07T00:12:34.920Z,8.40
2023-05-07T00:15:03.797Z,8.05
2023-05-07T00:17:31.206Z,10.83
2023-05-07T00:19:57.662Z,8.23
2023-05-07T00:22:24.059Z,9.35
2023-05-07T00:24:50.606Z,10.65
2023-05-07T00:27:17.223Z,10.80
2023-05-07T00:29:43.651Z,12.13
2023-05-07T00:32:10.276Z,13.68
2023-05-07T00:34:36.837Z,11.18
2023-05-07T00:37:05.313Z,8.80
2023-05-07T00:39:32.964Z,8.93
2023-05-07T00:41:59.801Z,7.87
2023-05-07T00:44:26.272Z,11.55
2023-05-07T00:46:52.973Z,9.77
2023-05-07T00:49:19.612Z,9.65
2023-05-07T00:51:47.272Z,9.82
2023-05-07T00:54:14.446Z,9.83
2023-05-07T00:56:41.063Z,11.65
2023-05-07T00:59:07.731Z,10.10
2023-05-07T01:01:34.434Z,10.23
2023-05-07T01:04:01.074Z,10.35
2023-05-07T01:06:29.970Z,8.10
2023-05-07T01:08:58.428Z,9.55
2023-05-07T01:11:26.529Z,9.85
2023-05-07T01:13:53.654Z,8.82
2023-05-07T01:16:20.211Z,10.25
2023-05-07T01:18:49.200Z,9.50
2023-05-07T01:21:18.519Z,12.82
2023-05-07T01:23:46.237Z,9.93
2023-05-07T01:26:12.707Z,9.10
2023-05-07T01:28:39.136Z,9.07
2023-05-07T01:31:07.204Z,10.47
2023-05-07T01:33:37.463Z,10.82
2023-05-07T01:36:07.215Z,8.88
2023-05-07T01:38:34.324Z,10.05
2023-05-07T01:41:01.110Z,9.45
2023-05-07T01:43:27.791Z,11.00
2023-05-07T01:45:55.165Z,9.55
2023-05-07T01:48:22.142Z,8.65
2023-05-07T01:50:49.526Z,8.77
2023-05-07T01:53:16.124Z,11.57
2023-05-07T01:55:42.648Z,10.97
2023-05-07T01:58:09.206Z,10.15
2023-05-07T02:00:35.670Z,9.05
2023-05-07T02:03:02.433Z,9.68
2023-05-07T02:05:29.046Z,10.40
2023-05-07T02:07:55.484Z,8.30
2023-05-07T02:10:22.065Z,8.82
2023-05-07T02:12:48.524Z,9.55
2023-05-07T02:15:15.002Z,9.68
2023-05-07T02:18:07.283Z,11.80
2023-05-07T02:20:33.943Z,10.83
2023-05-07T02:23:00.477Z,10.38
2023-05-07T02:25:27.034Z,10.20
2023-05-07T02:27:53.539Z,9.40
2023-05-07T02:30:22.441Z,11.95
2023-05-07T02:32:49.038Z,10.83
2023-05-07T02:35:15.737Z,9.18
2023-05-07T02:37:42.239Z,9.75
2023-05-07T02:40:09.383Z,10.40
2023-05-07T02:42:36.258Z,11.07
2023-05-07T02:45:02.777Z,13.87
2023-05-07T02:47:29.691Z,9.93
2023-05-07T02:49:56.637Z,14.98
2023-05-07T02:52:23.472Z,9.95
2023-05-07T02:54:49.984Z,10.57
2023-05-07T02:57:16.523Z,11.97
2023-05-07T02:59:43.839Z,11.48
2023-05-07T03:02:10.993Z,11.13
2023-05-07T03:04:37.592Z,9.82
2023-05-07T03:07:04.324Z,11.85
2023-05-07T03:09:30.795Z,13.53
2023-05-07T03:11:57.802Z,12.43
2023-05-07T03:14:24.268Z,12.25
2023-05-07T03:16:51.316Z,10.40
2023-05-07T03:19:17.815Z,10.95
2023-05-07T03:21:44.271Z,12.80
2023-05-07T03:24:10.695Z,13.55
2023-05-07T03:26:37.191Z,11.25
2023-05-07T03:29:03.660Z,14.02
2023-05-07T03:31:30.330Z,10.95
2023-05-07T03:33:58.454Z,11.90
2023-05-07T03:36:26.142Z,10.32
2023-05-07T03:38:52.627Z,11.40
2023-05-07T03:41:19.176Z,10.10
2023-05-07T03:43:45.581Z,10.27
2023-05-07T03:46:12.115Z,11.97
2023-05-07T03:48:38.956Z,11.93
2023-05-07T03:51:05.476Z,11.13
2023-05-07T03:53:31.928Z,11.48
2023-05-07T03:55:58.569Z,14.70
2023-05-07T03:58:25.037Z,15.07
2023-05-07T04:00:51.472Z,11.90
2023-05-07T04:03:18.372Z,12.25
2023-05-07T04:05:44.933Z,12.57
2023-05-07T04:08:11.348Z,11.95
2023-05-07T04:10:37.819Z,11.80
2023-05-07T04:13:04.390Z,13.88
2023-05-07T04:15:30.842Z,11.65
2023-05-07T04:17:57.314Z,14.60
2023-05-07T04:20:24.356Z,11.77
2023-05-07T04:22:50.792Z,13.43
2023-05-07T04:25:17.487Z,13.45
2023-05-07T04:27:43.971Z,12.27
2023-05-07T04:30:11.058Z,13.05
2023-05-07T04:32:38.438Z,17.67
2023-05-07T04:35:05.360Z,13.57
2023-05-07T04:37:33.496Z,14.80
2023-05-07T04:39:59.993Z,15.77
2023-05-07T04:42:26.431Z,14.68
2023-05-07T04:44:54.930Z,12.50
2023-05-07T04:47:21.507Z,13.17
2023-05-07T04:49:47.883Z,14.30
2023-05-07T04:52:14.338Z,15.98
2023-05-07T04:54:40.900Z,13.23
2023-05-07T04:57:07.587Z,14.65
2023-05-07T04:59:34.414Z,15.53
2023-05-07T05:02:01.343Z,13.48
2023-05-07T05:04:28.140Z,14.15
2023-05-07T05:06:54.595Z,12.57
2023-05-07T05:09:21.170Z,14.35
2023-05-07T05:11:47.600Z,15.90
2023-05-07T05:14:14.064Z,15.25
2023-05-07T05:16:40.602Z,14.05
2023-05-07T05:19:07.064Z,15.45
2023-05-07T05:21:33.627Z,13.50
2023-05-07T05:24:00.064Z,13.30
2023-05-07T05:26:26.764Z,14.38
2023-05-07T05:28:53.222Z,19.35
2023-05-07T05:31:19.770Z,14.98
2023-05-07T05:33:46.318Z,17.00
2023-05-07T05:36:14.113Z,17.57
2023-05-07T05:38:41.348Z,18.42
2023-05-07T05:41:07.901Z,15.73
2023-05-07T05:43:34.400Z,15.55
2023-05-07T05:46:01.712Z,16.70
2023-05-07T05:48:30.327Z,14.03
2023-05-07T05:50:56.765Z,15.90
2023-05-07T05:53:23.232Z,16.52
2023-05-07T05:55:50.731Z,14.55
2023-05-07T05:58:17.219Z,15.48
2023-05-07T06:00:43.814Z,15.60
2023-05-07T06:03:11.518Z,17.50
2023-05-07T06:05:38.004Z,16.52
2023-05-07T06:08:04.626Z,17.60
2023-05-07T06:10:31.639Z,16.00
2023-05-07T06:12:58.167Z,17.23
2023-05-07T06:15:24.588Z,18.52
2023-05-07T06:17:51.101Z,17.45
2023-05-07T06:20:17.564Z,16.23
2023-05-07T06:22:43.979Z,19.50
2023-05-07T06:25:10.459Z,18.10
2023-05-07T06:27:36.900Z,18.67
2023-05-07T06:30:03.921Z,20.55
2023-05-07T06:32:30.387Z,17.42
2023-05-07T06:34:56.851Z,17.63
2023-05-07T06:37:23.288Z,17.40
2023-05-07T06:39:49.721Z,17.13
2023-05-07T06:42:16.215Z,20.38
2023-05-07T06:44:42.646Z,16.63
2023-05-07T06:47:09.117Z,16.85
2023-05-07T06:49:35.642Z,17.47
2023-05-07T06:52:02.136Z,17.88
2023-05-07T06:54:28.591Z,17.58
2023-05-07T06:56:55.132Z,19.02
2023-05-07T06:59:21.584Z,16.85
2023-05-07T07:01:48.189Z,17.83
2023-05-07T07:04:14.628Z,17.02
2023-05-07T07:06:41.248Z,18.90
2023-05-07T07:09:07.716Z,17.20
2023-05-07T07:11:34.148Z,16.63
2023-05-07T07:14:00.671Z,15.57
2023-05-07T07:16:27.220Z,18.17
2023-05-07T07:18:53.874Z,23.40
2023-05-07T07:21:20.292Z,18.05
2023-05-07T07:23:46.702Z,19.33
2023-05-07T07:26:13.136Z,17.33
2023-05-07T07:28:48.648Z,17.73
2023-05-07T07:31:15.175Z,18.65
2023-05-07T07:33:42.376Z,18.15
2023-05-07T07:36:09.032Z,16.98
2023-05-07T07:38:35.935Z,16.57
2023-05-07T07:41:02.772Z,15.40
2023-05-07T07:43:29.375Z,20.00
2023-05-07T07:45:55.874Z,15.85
2023-05-07T07:48:22.660Z,15.60
2023-05-07T07:50:52.372Z,15.80
2023-05-07T07:53:19.355Z,16.83
2023-05-07T07:55:46.091Z,16.30
2023-05-07T07:58:12.633Z,15.45
2023-05-07T08:00:39.081Z,16.05
2023-05-07T08:03:06.304Z,17.27
2023-05-07T08:05:32.850Z,16.30
2023-05-07T08:07:59.603Z,15.05
2023-05-07T08:10:26.329Z,18.17
2023-05-07T08:12:53.099Z,16.83
2023-05-07T08:15:19.683Z,16.40
2023-05-07T08:17:46.256Z,17.80
2023-05-07T08:20:13.042Z,15.98
2023-05-07T08:22:39.738Z,18.55
2023-05-07T08:25:06.590Z,17.38
2023-05-07T08:27:33.038Z,17.47
2023-05-07T08:29:59.826Z,17.08
2023-05-07T08:32:26.520Z,20.45
2023-05-07T08:34:53.262Z,17.30
2023-05-07T08:37:19.796Z,20.60
2023-05-07T08:39:46.259Z,17.50
2023-05-07T08:42:16.752Z,18.77
2023-05-07T08:44:47.910Z,18.58
2023-05-07T08:47:14.416Z,19.77
2023-05-07T08:49:41.048Z,19.10
2023-05-07T08:52:09.733Z,20.07
2023-05-07T08:54:38.707Z,20.52
2023-05-07T08:57:05.362Z,20.73
2023-05-07T08:59:31.932Z,18.05
2023-05-07T09:01:58.448Z,20.33
2023-05-07T09:04:24.948Z,19.63
2023-05-07T09:06:52.708Z,21.42
2023-05-07T09:09:22.313Z,20.13
2023-05-07T09:11:48.776Z,18.60
2023-05-07T09:14:15.390Z,19.23
2023-05-07T09:16:42.165Z,21.73
2023-05-07T09:19:08.864Z,17.88
2023-05-07T09:21:36.460Z,21.33
2023-05-07T09:24:03.090Z,20.55
2023-05-07T09:26:29.762Z,16.85
2023-05-07T09:28:56.355Z,19.83
2023-05-07T09:31:24.698Z,19.27
2023-05-07T09:33:51.779Z,20.85
2023-05-07T09:36:18.968Z,18.63
2023-05-07T09:38:46.293Z,18.83
2023-05-07T09:41:14.096Z,18.67
2023-05-07T09:43:41.602Z,18.73
2023-05-07T09:46:16.395Z,17.95
2023-05-07T09:48:44.735Z,15.90
2023-05-07T09:51:23.228Z,16.42
2023-05-07T09:53:51.413Z,18.40
2023-05-07T09:56:19.472Z,18.60
2023-05-07T09:58:48.106Z,17.77
2023-05-07T10:01:14.995Z,18.20
2023-05-07T10:03:43.562Z,20.75
2023-05-07T10:06:11.531Z,19.90
2023-05-07T10:08:38.743Z,17.90
2023-05-07T10:11:07.021Z,18.70
2023-05-07T10:13:36.742Z,18.38
2023-05-07T10:16:05.696Z,18.02
2023-05-07T10:18:34.046Z,16.00
2023-05-07T10:21:09.231Z,18.25
2023-05-07T10:23:37.875Z,17.50
2023-05-07T10:26:07.535Z,18.80
2023-05-07T10:28:39.659Z,16.83
2023-05-07T10:31:24.082Z,17.57
2023-05-07T10:33:54.021Z,16.98
2023-05-07T10:36:22.218Z,15.70
2023-05-07T10:38:48.726Z,16.88
2023-05-07T10:41:16.275Z,17.27
2023-05-07T10:43:44.647Z,17.63
2023-05-07T10:46:15.916Z,18.17
2023-05-07T10:49:04.291Z,16.88
2023-05-07T10:51:34.841Z,18.13
2023-05-07T10:54:10.604Z,17.90
2023-05-07T10:56:44.232Z,20.33
2023-05-07T10:59:28.275Z,16.85
2023-05-07T11:01:59.392Z,16.33
2023-05-07T11:04:29.365Z,19.38
2023-05-07T11:07:09.293Z,15.93
2023-05-07T11:09:54.174Z,16.03
2023-05-07T11:12:39.167Z,16.83
2023-05-07T11:15:10.929Z,16.88
2023-05-07T11:18:00.995Z,17.50
2023-05-07T11:20:47.504Z,17.85
2023-05-07T11:23:33.025Z,20.10
2023-05-07T11:26:06.924Z,18.58
2023-05-07T11:28:38.881Z,21.00
2023-05-07T11:31:06.082Z,18.98
2023-05-07T11:33:33.348Z,19.23
2023-05-07T11:36:01.279Z,20.57
2023-05-07T11:38:30.570Z,18.52
2023-05-07T11:40:58.821Z,19.02
2023-05-07T11:43:25.519Z,19.25
2023-05-07T11:45:52.039Z,18.90
2023-05-07T11:48:18.694Z,20.70
2023-05-07T11:51:19.533Z,17.60
2023-05-07T11:53:46.164Z,19.60
2023-05-07T11:56:14.749Z,23.75
2023-05-07T11:58:42.377Z,16.38
2023-05-07T12:01:10.685Z,19.52
2023-05-07T12:03:38.821Z,18.73
2023-05-07T12:06:08.579Z,19.95
2023-05-07T12:08:38.700Z,18.20
2023-05-07T12:11:08.663Z,19.10
2023-05-07T12:13:35.311Z,17.23
2023-05-07T12:16:04.588Z,18.75
2023-05-07T12:18:31.618Z,19.23
2023-05-07T12:21:00.003Z,19.02
2023-05-07T12:23:26.659Z,16.45
2023-05-07T12:25:53.133Z,21.08
2023-05-07T12:28:20.792Z,18.58
2023-05-07T12:30:49.596Z,18.35
2023-05-07T12:33:22.564Z,18.23
2023-05-07T12:35:49.194Z,18.38
2023-05-07T12:38:18.226Z,20.07
2023-05-07T12:40:54.756Z,22.17
2023-05-07T12:43:25.122Z,17.85
2023-05-07T12:45:52.416Z,17.52
2023-05-07T12:48:20.815Z,19.70
2023-05-07T12:50:56.922Z,15.13
2023-05-07T12:53:25.708Z,17.80
2023-05-07T12:55:54.446Z,16.38
2023-05-07T12:58:27.804Z,11.35
2023-05-07T13:01:00.367Z,12.00
2023-05-07T13:03:32.906Z,15.20
2023-05-07T13:06:01.810Z,14.98
2023-05-07T13:08:35.906Z,12.52
2023-05-07T13:11:04.848Z,13.05
2023-05-07T13:13:33.028Z,15.43
2023-05-07T13:15:59.977Z,13.95
2023-05-07T13:18:27.338Z,14.40
2023-05-07T13:20:54.576Z,12.43
2023-05-07T13:23:21.414Z,14.60
2023-05-07T13:25:49.101Z,16.17
2023-05-07T13:28:15.850Z,16.70
2023-05-07T13:30:42.695Z,13.43
2023-05-07T13:33:10.153Z,15.07
2023-05-07T13:35:36.903Z,13.95
2023-05-07T13:38:03.332Z,14.00
2023-05-07T13:40:29.858Z,15.70
2023-05-07T13:42:59.524Z,14.82
2023-05-07T13:45:27.090Z,16.77
2023-05-07T13:47:53.660Z,13.75
2023-05-07T13:50:20.267Z,14.40
2023-05-07T13:52:51.426Z,15.98
2023-05-07T13:55:22.480Z,16.45
2023-05-07T13:57:49.033Z,15.27
2023-05-07T14:00:17.328Z,17.60
2023-05-07T14:02:43.910Z,15.90
2023-05-07T14:05:11.137Z,16.08
2023-05-07T14:07:38.023Z,15.60
2023-05-07T14:10:04.917Z,15.10
2023-05-07T14:12:33.074Z,13.38
2023-05-07T14:14:59.901Z,14.80
2023-05-07T14:17:27.943Z,16.30
2023-05-07T14:19:55.401Z,20.75
2023-05-07T14:22:23.574Z,15.30
2023-05-07T14:24:59.667Z,15.38
2023-05-07T14:27:32.880Z,15.20
2023-05-07T14:29:59.364Z,16.00
2023-05-07T14:32:25.935Z,15.77
2023-05-07T14:34:52.493Z,17.70
2023-05-07T14:37:20.841Z,17.38
2023-05-07T14:39:49.808Z,18.33
2023-05-07T14:42:16.757Z,16.67
2023-05-07T14:44:43.258Z,13.93
2023-05-07T14:47:09.958Z,12.13
2023-05-07T14:49:36.751Z,15.30
2023-05-07T14:52:03.394Z,14.60
2023-05-07T14:54:29.861Z,13.53
2023-05-07T14:56:56.864Z,16.00
2023-05-07T14:59:25.870Z,14.70
2023-05-07T15:01:52.610Z,15.13
2023-05-07T15:04:19.418Z,15.07
2023-05-07T15:06:47.115Z,14.53
2023-05-07T15:09:13.539Z,12.98
2023-05-07T15:11:40.352Z,13.85
2023-05-07T15:14:07.049Z,13.30
2023-05-07T15:16:34.524Z,14.90
2023-05-07T15:19:01.452Z,14.93
2023-05-07T15:21:28.347Z,13.15
2023-05-07T15:23:54.765Z,13.80
2023-05-07T15:26:21.694Z,16.15
2023-05-07T15:28:48.237Z,14.75
2023-05-07T15:31:16.686Z,15.53
2023-05-07T15:33:43.153Z,16.40
2023-05-07T15:36:09.664Z,15.80
2023-05-07T15:38:36.175Z,10.70
2023-05-07T15:41:02.619Z,8.02
2023-05-07T15:43:29.113Z,7.97
2023-05-07T15:45:55.796Z,10.00
2023-05-07T15:48:22.388Z,9.38
2023-05-07T15:50:48.980Z,9.30
2023-05-07T15:53:15.509Z,8.30
2023-05-07T15:55:44.415Z,8.53
2023-05-07T15:58:10.996Z,4.55
2023-05-07T16:00:40.728Z,5.55
2023-05-07T16:03:07.624Z,3.28
2023-05-07T16:05:34.267Z,7.72
2023-05-07T16:08:00.938Z,6.17
2023-05-07T16:10:27.615Z,5.53
2023-05-07T16:12:54.278Z,5.88
2023-05-07T16:15:20.818Z,5.50
2023-05-07T16:17:49.563Z,5.55
2023-05-07T16:20:19.853Z,4.93
2023-05-07T16:22:46.863Z,7.03
2023-05-07T16:25:14.774Z,7.50
2023-05-07T16:27:41.587Z,6.55
2023-05-07T16:30:08.844Z,9.90
2023-05-07T16:32:36.305Z,6.80
2023-05-07T16:35:03.830Z,11.23
2023-05-07T16:37:30.563Z,7.65
2023-05-07T16:39:57.232Z,10.02
2023-05-07T16:42:23.745Z,6.97
2023-05-07T16:44:50.280Z,9.40
2023-05-07T16:47:16.721Z,7.03
2023-05-07T16:49:44.308Z,8.07
2023-05-07T16:52:11.106Z,8.38
2023-05-07T16:54:37.558Z,6.50
2023-05-07T16:57:04.077Z,6.73
2023-05-07T16:59:33.320Z,9.10
2023-05-07T17:01:59.817Z,6.60
2023-05-07T17:04:26.370Z,5.72
2023-05-07T17:06:52.888Z,4.97
2023-05-07T17:09:19.388Z,5.07
2023-05-07T17:11:45.804Z,5.20
2023-05-07T17:14:12.357Z,9.43
2023-05-07T17:16:38.885Z,6.82
2023-05-07T17:19:05.682Z,8.10
2023-05-07T17:21:32.305Z,7.13
2023-05-07T17:23:58.771Z,6.88
2023-05-07T17:26:25.386Z,6.75
2023-05-07T17:28:51.868Z,6.43
2023-05-07T17:31:18.408Z,7.22
2023-05-07T17:33:44.871Z,5.87
2023-05-07T17:36:11.419Z,5.53
2023-05-07T17:38:37.930Z,6.28
2023-05-07T17:41:04.423Z,5.22
2023-05-07T17:43:30.918Z,7.18
2023-05-07T17:45:57.495Z,4.47
2023-05-07T17:48:24.291Z,6.38
2023-05-07T17:50:50.835Z,6.07
2023-05-07T17:53:17.683Z,7.63
2023-05-07T17:55:45.227Z,6.18
2023-05-07T17:58:12.283Z,5.90
2023-05-07T18:00:38.890Z,8.90
2023-05-07T18:03:05.704Z,7.75
2023-05-07T18:05:48.538Z,8.23
2023-05-07T18:29:26.263Z,9.75
2023-05-07T18:31:52.760Z,9.98
2023-05-07T18:34:19.210Z,9.50
2023-05-07T18:36:46.129Z,11.48
2023-05-07T18:39:12.634Z,9.73
2023-05-07T18:41:39.188Z,11.85
2023-05-07T18:44:06.675Z,13.88
2023-05-07T18:46:33.234Z,14.57
2023-05-07T18:48:59.702Z,12.80
2023-05-07T18:51:27.283Z,11.25
2023-05-07T18:53:53.878Z,11.32
2023-05-07T18:56:21.615Z,11.95
2023-05-07T18:58:48.147Z,11.27
2023-05-07T19:01:14.637Z,9.32
2023-05-07T19:03:41.142Z,8.23
2023-05-07T19:06:07.716Z,8.05
2023-05-07T19:08:34.233Z,11.27
2023-05-07T19:11:00.735Z,8.50
2023-05-07T19:13:27.452Z,7.97
2023-05-07T19:15:54.693Z,11.70
2023-05-07T19:18:21.302Z,8.68
2023-05-07T19:20:49.149Z,8.25
2023-05-07T19:23:16.487Z,9.10
2023-05-07T19:25:43.105Z,8.85
2023-05-07T19:28:10.209Z,9.73
2023-05-07T19:30:40.859Z,11.40
2023-05-07T19:33:07.452Z,28.08
2023-05-07T19:35:35.288Z,39.70
2023-05-07T19:38:02.235Z,14.32
2023-05-07T19:40:28.775Z,9.30
2023-05-07T19:42:55.281Z,9.45
2023-05-07T19:45:21.747Z,8.32
2023-05-07T19:47:49.041Z,8.97
2023-05-07T19:50:16.508Z,9.20
2023-05-07T19:52:43.178Z,9.65
2023-05-07T19:55:09.998Z,9.35
2023-05-07T19:57:36.613Z,9.20
2023-05-07T20:00:03.519Z,9.40
2023-05-07T20:02:30.135Z,9.88
2023-05-07T20:04:56.776Z,8.82
2023-05-07T20:07:23.311Z,8.95
2023-05-07T20:09:49.859Z,11.20
2023-05-07T20:12:17.939Z,17.37
2023-05-07T20:14:44.403Z,13.60
2023-05-07T20:17:10.871Z,15.45
2023-05-07T20:19:37.353Z,17.23
2023-05-07T20:22:03.832Z,17.63
2023-05-07T20:24:30.350Z,15.07
2023-05-07T20:26:56.800Z,12.63
2023-05-07T20:29:23.305Z,14.43
2023-05-07T20:31:49.805Z,15.38
2023-05-07T20:34:16.447Z,14.07
2023-05-07T20:36:42.850Z,12.53
2023-05-07T20:39:09.553Z,14.10
2023-05-07T20:41:36.008Z,12.70
2023-05-07T20:44:02.987Z,10.88
2023-05-07T20:46:30.261Z,13.35
2023-05-07T20:48:56.825Z,12.47
2023-05-07T20:51:23.245Z,13.68
2023-05-07T20:53:49.702Z,11.48
2023-05-07T20:56:16.393Z,14.23
2023-05-07T20:58:42.838Z,13.77
2023-05-07T21:01:09.654Z,12.80
2023-05-07T21:03:36.185Z,12.93
2023-05-07T21:06:04.037Z,10.77
2023-05-07T21:08:30.807Z,12.68
2023-05-07T21:10:57.385Z,11.13
2023-05-07T21:13:23.923Z,10.40
2023-05-07T21:15:50.668Z,12.40
2023-05-07T21:18:19.000Z,13.32
2023-05-07T21:20:45.725Z,15.52
2023-05-07T21:23:12.145Z,10.30
2023-05-07T21:25:39.089Z,12.27
2023-05-07T21:28:07.687Z,10.52
2023-05-07T21:30:34.401Z,14.27
2023-05-07T21:33:00.953Z,11.13
2023-05-07T21:35:27.467Z,11.50
2023-05-07T21:37:54.141Z,10.97
2023-05-07T21:40:20.678Z,13.45
2023-05-07T21:42:47.141Z,10.43
2023-05-07T21:45:13.960Z,14.38
2023-05-07T21:47:40.499Z,17.25
2023-05-07T21:50:07.575Z,12.03
2023-05-07T21:52:34.052Z,12.95
2023-05-07T21:55:00.453Z,12.38
2023-05-07T21:57:26.937Z,10.95
2023-05-07T21:59:53.447Z,13.18
2023-05-07T22:02:19.918Z,13.90
2023-05-07T22:04:46.481Z,12.98
2023-05-07T22:07:12.956Z,13.18
2023-05-07T22:09:39.396Z,15.43
2023-05-07T22:12:05.990Z,12.73
2023-05-07T22:14:32.459Z,12.70
2023-05-07T22:16:58.966Z,12.18
2023-05-07T22:19:25.569Z,13.48
2023-05-07T22:21:52.151Z,12.55
2023-05-07T22:24:18.698Z,11.60
2023-05-07T22:26:45.256Z,11.80
2023-05-07T22:29:11.691Z,10.57
2023-05-07T22:31:38.114Z,12.23
2023-05-07T22:34:04.668Z,11.73
2023-05-07T22:36:31.230Z,12.60
2023-05-07T22:38:57.656Z,12.47
2023-05-07T22:41:24.606Z,13.10
2023-05-07T22:43:51.228Z,12.00
2023-05-07T22:46:17.749Z,13.18
2023-05-07T22:48:44.258Z,12.73
2023-05-07T22:51:14.705Z,13.23
2023-05-07T22:53:41.296Z,11.80
2023-05-07T22:56:08.302Z,11.25
2023-05-07T22:58:34.797Z,10.98
2023-05-07T23:01:02.403Z,10.63
2023-05-07T23:03:29.069Z,13.47
2023-05-07T23:05:55.681Z,13.73
2023-05-07T23:08:23.155Z,9.98
2023-05-07T23:10:49.660Z,10.75
2023-05-07T23:13:17.270Z,11.02
2023-05-07T23:15:44.189Z,11.43
2023-05-07T23:18:10.761Z,11.95
2023-05-07T23:20:37.352Z,10.82
2023-05-07T23:23:03.880Z,8.40
2023-05-07T23:25:30.404Z,14.20
2023-05-07T23:27:56.871Z,9.67
2023-05-07T23:30:23.359Z,11.80
2023-05-07T23:32:49.834Z,11.30
2023-05-07T23:35:16.349Z,9.50
2023-05-07T23:37:42.792Z,9.43
2023-05-07T23:40:09.687Z,10.47
2023-05-07T23:42:36.534Z,11.65
2023-05-07T23:45:03.573Z,15.77
2023-05-07T23:47:30.503Z,14.10
2023-05-07T23:49:56.954Z,11.35
2023-05-07T23:52:23.468Z,11.53
2023-05-07T23:54:49.897Z,10.25
2023-05-07T23:57:16.426Z,11.20
2023-05-07T23:59:42.936Z,10.48
